Flight Track Log - Related Links

Times and Time Zones

All times are in EDT time to prevent confusion due to time zone crossing. See the KAP927 flight status page for this flight to view local times or setup timezone preferences in your user account.

Time Position Orientation Groundspeed Altitude Reporting Facility
EDT Latitude Longitude Course Direction KTS MPH feet Rate Location/Type
Fri 02:25:11 PM 42.7797 -73.8092 359° North 112 129 1,300  Level Boston Center
Fri 02:26:12 PM 42.8108 -73.8325 331° Northwest 121 139 1,900 626 Climbing Boston Center
Fri 02:27:06 PM 42.8333 -73.8586 320° Northwest 120 138 2,500 574 Climbing Boston Center
Fri 02:28:07 PM 42.8622 -73.8819 329° Northwest 120 138 3,000 469 Climbing Boston Center
Fri 02:29:14 PM 42.8933 -73.9081 328° Northwest 128 147 3,500 496 Climbing Boston Center
Fri 02:30:08 PM 42.9200 -73.9342 324° Northwest 130 150 4,000 595 Climbing Boston Center
Fri 02:31:15 PM 42.9528 -73.9719 320° Northwest 131 151 4,700 639 Climbing Boston Center
Fri 02:32:10 PM 42.9794 -74.0008 322° Northwest 127 146 5,300 606 Climbing Boston Center
Fri 02:33:04 PM 43.0022 -74.0242 323° Northwest 124 143 5,800 574 Climbing Boston Center
Fri 02:34:05 PM 43.0308 -74.0506 326° Northwest 120 138 6,400 639 Climbing Boston Center
Fri 02:35:06 PM 43.0575 -74.0797 321° Northwest 121 139 7,100 645 Climbing Boston Center
Fri 02:36:06 PM 43.0822 -74.1058 322° Northwest 117 135 7,700 496 Climbing Boston Center
Fri 02:37:07 PM 43.1111 -74.1322 326° Northwest 117 135 8,100 148 Climbing Boston Center
Fri 02:38:08 PM 43.1419 -74.1558 331° Northwest 135 155 8,000 -47 Descending Boston Center
Fri 02:39:15 PM 43.1811 -74.1797 336° Northwest 172 198 8,000  Level Boston Center
Fri 02:40:15 PM 43.2161 -74.2092 328° Northwest 156 180 8,000  Level Boston Center
Fri 02:41:15 PM 43.2492 -74.2358 330° Northwest 145 167 8,000  Level Boston Center
Fri 02:42:15 PM 43.2861 -74.2656 330° Northwest 145 167 8,000 -50 Level Boston Center
Fri 02:43:15 PM 43.3108 -74.2892 325° Northwest 140 161 7,900  Descending Boston Center
Fri 02:44:15 PM 43.3539 -74.3217 331° Northwest 145 167 8,000 50 Climbing Boston Center
Fri 02:45:15 PM 43.3847 -74.3483 328° Northwest 145 167 8,000 50 Level Boston Center
Fri 02:46:15 PM 43.4178 -74.3781 327° Northwest 145 167 8,100 50 Climbing Boston Center
Fri 02:47:15 PM 43.4525 -74.4050 331° Northwest 145 167 8,100  Level Boston Center
Fri 02:48:15 PM 43.4853 -74.4375 324° Northwest 145 167 8,100  Level Boston Center
Fri 02:49:15 PM 43.5206 -74.4617 334° Northwest 145 167 8,100  Level Boston Center
Fri 02:50:15 PM 43.5533 -74.4914 327° Northwest 145 167 8,100  Level Boston Center
Fri 02:51:15 PM 43.5881 -74.5183 331° Northwest 145 167 8,100  Level Boston Center
Fri 02:52:15 PM 43.6211 -74.5453 329° Northwest 145 167 8,100  Level Boston Center
Fri 02:53:15 PM 43.6558 -74.5753 328° Northwest 145 167 8,100  Level Boston Center
Fri 02:54:15 PM 43.6908 -74.6050 328° Northwest 145 167 8,100  Level Boston Center
Fri 02:55:15 PM 43.7256 -74.6350 328° Northwest 145 167 8,100  Level Boston Center
Fri 02:56:15 PM 43.7603 -74.6708 323° Northwest 150 173 8,100  Level Boston Center
Fri 02:57:15 PM 43.7869 -74.6919 330° Northwest 150 173 8,100  Level Boston Center
Fri 02:58:15 PM 43.8303 -74.7253 331° Northwest 150 173 8,100  Level Boston Center
Fri 02:59:15 PM 43.8650 -74.7525 331° Northwest 150 173 8,100  Level Boston Center
Fri 03:00:15 PM 43.8958 -74.7825 325° Northwest 150 173 8,100 -45 Level Boston Center
Fri 03:01:27 PM 43.9408 -74.8161 332° Northwest 150 173 8,000 -45 Descending Boston Center
Fri 03:02:27 PM 43.9778 -74.8464 329° Northwest 145 167 8,000 -50 Level Boston Center
Fri 03:03:27 PM 44.0083 -74.8794 322° Northwest 145 167 7,900 -250 Descending Boston Center
Fri 03:04:27 PM 44.0494 -74.9097 332° Northwest 150 173 7,500 -400 Descending Boston Center
Fri 03:05:27 PM 44.0881 -74.9461 326° Northwest 162 186 7,100 -500 Descending Boston Center
Fri 03:06:27 PM 44.1269 -74.9825 326° Northwest 167 192 6,500 -550 Descending Boston Center
Fri 03:07:27 PM 44.1700 -75.0103 335° Northwest 167 192 6,000 -550 Descending Boston Center
Fri 03:08:27 PM 44.2086 -75.0525 322° Northwest 167 192 5,400 -450 Descending Boston Center
Fri 03:09:27 PM 44.2456 -75.0803 332° Northwest 167 192 5,100 -200 Descending Boston Center
Fri 03:10:27 PM 44.2825 -75.1139 327° Northwest 162 186 5,000 -50 Descending Boston Center
Fri 03:11:27 PM 44.3192 -75.1417 332° Northwest 157 181 5,000  Level Boston Center

Login

Don't have an account? Register now (free) for customized features, flight alerts, and more!